Terminal Aerodrome Forecast
Issued by NWS

Home | Current Version | Previous Version | Text Only | Print | Product List | Glossary On
Versions: 1 2 3 4 5 6 7 8 9 10 11 12 13 14 15 16 17 18 19 20 21
317
FTUS43 KSGF 211724
TAFJLN
TAF
KJLN 211724Z 2118/2218 VRB04KT P6SM BKN015
     FM212000 VRB04KT P6SM SCT200
     FM221000 00000KT 3/4SM BR SKC
     FM221400 VRB03KT P6SM SKC=

USA.gov is the U.S. government's official web portal to all federal, state and local government web resources and services.